sensor_id;sensor_type;location;lat;lon;timestamp;P1;durP1;ratioP1;P2;durP2;ratioP2
62572;SDS011;48626;51.678;5.806;2023-08-31T00:01:38;7.20;;;3.40;;
62572;SDS011;48626;51.678;5.806;2023-08-31T00:04:04;5.85;;;3.35;;
62572;SDS011;48626;51.678;5.806;2023-08-31T00:06:33;4.20;;;3.08;;
62572;SDS011;48626;51.678;5.806;2023-08-31T00:08:59;5.78;;;3.28;;
62572;SDS011;48626;51.678;5.806;2023-08-31T00:11:25;10.27;;;3.47;;
62572;SDS011;48626;51.678;5.806;2023-08-31T00:13:51;6.00;;;3.55;;
62572;SDS011;48626;51.678;5.806;2023-08-31T00:16:17;5.38;;;3.63;;
62572;SDS011;48626;51.678;5.806;2023-08-31T00:18:48;6.05;;;3.30;;
62572;SDS011;48626;51.678;5.806;2023-08-31T00:21:14;4.80;;;3.10;;
62572;SDS011;48626;51.678;5.806;2023-08-31T00:23:39;6.60;;;3.55;;
62572;SDS011;48626;51.678;5.806;2023-08-31T00:26:05;5.50;;;3.50;;
62572;SDS011;48626;51.678;5.806;2023-08-31T00:28:32;8.02;;;3.88;;
62572;SDS011;48626;51.678;5.806;2023-08-31T00:31:00;8.20;;;3.67;;
62572;SDS011;48626;51.678;5.806;2023-08-31T00:33:28;8.73;;;3.78;;
62572;SDS011;48626;51.678;5.806;2023-08-31T00:35:54;11.95;;;4.05;;
62572;SDS011;48626;51.678;5.806;2023-08-31T00:38:21;6.50;;;3.78;;
62572;SDS011;48626;51.678;5.806;2023-08-31T00:40:46;5.28;;;3.60;;
62572;SDS011;48626;51.678;5.806;2023-08-31T00:43:15;5.35;;;3.70;;
62572;SDS011;48626;51.678;5.806;2023-08-31T00:45:41;7.10;;;4.28;;
62572;SDS011;48626;51.678;5.806;2023-08-31T00:48:08;9.30;;;4.13;;
62572;SDS011;48626;51.678;5.806;2023-08-31T00:50:34;11.77;;;4.25;;
62572;SDS011;48626;51.678;5.806;2023-08-31T00:53:00;7.72;;;4.30;;
62572;SDS011;48626;51.678;5.806;2023-08-31T00:55:26;9.95;;;4.20;;
62572;SDS011;48626;51.678;5.806;2023-08-31T00:57:51;7.20;;;4.43;;
62572;SDS011;48626;51.678;5.806;2023-08-31T01:00:17;6.75;;;4.50;;
62572;SDS011;48626;51.678;5.806;2023-08-31T01:05:52;7.85;;;4.60;;
62572;SDS011;48626;51.678;5.806;2023-08-31T01:08:49;9.73;;;4.90;;
62572;SDS011;48626;51.678;5.806;2023-08-31T01:14:09;7.10;;;4.65;;
62572;SDS011;48626;51.678;5.806;2023-08-31T01:16:37;7.53;;;4.85;;
62572;SDS011;48626;51.678;5.806;2023-08-31T01:19:08;7.25;;;4.80;;
62572;SDS011;48626;51.678;5.806;2023-08-31T01:21:43;9.40;;;5.22;;
62572;SDS011;48626;51.678;5.806;2023-08-31T01:24:12;8.23;;;5.60;;
62572;SDS011;48626;51.678;5.806;2023-08-31T01:26:38;8.68;;;5.30;;
62572;SDS011;48626;51.678;5.806;2023-08-31T01:29:06;8.98;;;5.65;;
62572;SDS011;48626;51.678;5.806;2023-08-31T01:31:32;10.50;;;6.13;;
62572;SDS011;48626;51.678;5.806;2023-08-31T01:33:58;9.07;;;6.35;;
62572;SDS011;48626;51.678;5.806;2023-08-31T01:41:53;11.80;;;6.57;;
62572;SDS011;48626;51.678;5.806;2023-08-31T01:44:21;11.23;;;6.65;;
62572;SDS011;48626;51.678;5.806;2023-08-31T01:46:51;8.95;;;6.78;;
62572;SDS011;48626;51.678;5.806;2023-08-31T01:49:19;10.25;;;7.32;;
62572;SDS011;48626;51.678;5.806;2023-08-31T01:51:46;9.57;;;7.20;;
62572;SDS011;48626;51.678;5.806;2023-08-31T01:54:11;11.50;;;7.40;;
62572;SDS011;48626;51.678;5.806;2023-08-31T01:56:37;13.07;;;8.35;;
62572;SDS011;48626;51.678;5.806;2023-08-31T01:59:03;10.50;;;7.80;;
62572;SDS011;48626;51.678;5.806;2023-08-31T02:01:28;11.07;;;7.50;;
62572;SDS011;48626;51.678;5.806;2023-08-31T02:03:54;11.35;;;7.80;;
62572;SDS011;48626;51.678;5.806;2023-08-31T02:06:20;14.88;;;8.10;;
62572;SDS011;48626;51.678;5.806;2023-08-31T02:08:45;16.00;;;8.38;;
62572;SDS011;48626;51.678;5.806;2023-08-31T02:11:12;15.18;;;7.97;;
62572;SDS011;48626;51.678;5.806;2023-08-31T02:13:40;12.93;;;8.32;;
62572;SDS011;48626;51.678;5.806;2023-08-31T02:16:06;15.15;;;8.65;;
62572;SDS011;48626;51.678;5.806;2023-08-31T02:18:32;15.23;;;8.73;;
62572;SDS011;48626;51.678;5.806;2023-08-31T02:20:57;15.52;;;7.75;;
62572;SDS011;48626;51.678;5.806;2023-08-31T02:23:23;13.00;;;8.25;;
62572;SDS011;48626;51.678;5.806;2023-08-31T02:25:49;13.20;;;8.43;;
62572;SDS011;48626;51.678;5.806;2023-08-31T02:28:14;12.05;;;8.38;;
62572;SDS011;48626;51.678;5.806;2023-08-31T02:30:40;13.27;;;7.85;;
62572;SDS011;48626;51.678;5.806;2023-08-31T02:33:09;12.00;;;8.45;;
62572;SDS011;48626;51.678;5.806;2023-08-31T02:35:35;15.90;;;8.13;;
62572;SDS011;48626;51.678;5.806;2023-08-31T02:38:00;12.77;;;8.20;;
62572;SDS011;48626;51.678;5.806;2023-08-31T02:40:27;14.27;;;8.40;;
62572;SDS011;48626;51.678;5.806;2023-08-31T02:42:53;12.50;;;8.32;;
62572;SDS011;48626;51.678;5.806;2023-08-31T02:45:18;12.82;;;8.10;;
62572;SDS011;48626;51.678;5.806;2023-08-31T02:47:44;12.15;;;7.90;;
62572;SDS011;48626;51.678;5.806;2023-08-31T02:50:10;12.65;;;7.90;;
62572;SDS011;48626;51.678;5.806;2023-08-31T02:52:35;15.48;;;8.35;;
62572;SDS011;48626;51.678;5.806;2023-08-31T02:55:01;13.05;;;8.07;;
62572;SDS011;48626;51.678;5.806;2023-08-31T02:57:27;14.52;;;8.57;;
62572;SDS011;48626;51.678;5.806;2023-08-31T02:59:52;11.40;;;7.72;;
62572;SDS011;48626;51.678;5.806;2023-08-31T03:02:18;11.85;;;8.02;;
62572;SDS011;48626;51.678;5.806;2023-08-31T03:04:44;12.82;;;7.90;;
62572;SDS011;48626;51.678;5.806;2023-08-31T03:07:09;17.13;;;8.50;;
62572;SDS011;48626;51.678;5.806;2023-08-31T03:09:38;12.13;;;7.32;;
62572;SDS011;48626;51.678;5.806;2023-08-31T03:12:05;11.27;;;7.25;;
62572;SDS011;48626;51.678;5.806;2023-08-31T03:14:30;14.00;;;7.45;;
62572;SDS011;48626;51.678;5.806;2023-08-31T03:16:56;9.68;;;7.32;;
62572;SDS011;48626;51.678;5.806;2023-08-31T03:19:22;11.98;;;7.28;;
62572;SDS011;48626;51.678;5.806;2023-08-31T03:21:47;10.65;;;7.40;;
62572;SDS011;48626;51.678;5.806;2023-08-31T03:24:13;14.20;;;7.70;;
62572;SDS011;48626;51.678;5.806;2023-08-31T03:26:38;12.73;;;7.95;;
62572;SDS011;48626;51.678;5.806;2023-08-31T03:29:04;14.13;;;7.65;;
62572;SDS011;48626;51.678;5.806;2023-08-31T03:31:30;12.85;;;8.30;;
62572;SDS011;48626;51.678;5.806;2023-08-31T03:33:56;16.40;;;8.90;;
62572;SDS011;48626;51.678;5.806;2023-08-31T03:36:22;14.93;;;8.30;;
62572;SDS011;48626;51.678;5.806;2023-08-31T03:38:49;12.70;;;8.70;;
62572;SDS011;48626;51.678;5.806;2023-08-31T03:41:14;11.15;;;8.05;;
62572;SDS011;48626;51.678;5.806;2023-08-31T03:43:40;12.98;;;8.30;;
62572;SDS011;48626;51.678;5.806;2023-08-31T03:46:05;13.52;;;8.80;;
62572;SDS011;48626;51.678;5.806;2023-08-31T03:48:31;13.15;;;8.65;;
62572;SDS011;48626;51.678;5.806;2023-08-31T03:50:57;12.60;;;8.32;;
62572;SDS011;48626;51.678;5.806;2023-08-31T03:53:22;14.45;;;9.18;;
62572;SDS011;48626;51.678;5.806;2023-08-31T03:55:48;13.23;;;8.30;;
62572;SDS011;48626;51.678;5.806;2023-08-31T03:58:14;12.73;;;8.73;;
62572;SDS011;48626;51.678;5.806;2023-08-31T04:00:40;12.82;;;8.52;;
62572;SDS011;48626;51.678;5.806;2023-08-31T04:03:05;14.70;;;9.70;;
62572;SDS011;48626;51.678;5.806;2023-08-31T04:05:34;14.57;;;9.57;;
62572;SDS011;48626;51.678;5.806;2023-08-31T04:08:00;16.37;;;10.80;;
62572;SDS011;48626;51.678;5.806;2023-08-31T04:10:26;19.42;;;10.55;;
62572;SDS011;48626;51.678;5.806;2023-08-31T04:12:52;16.48;;;10.50;;
62572;SDS011;48626;51.678;5.806;2023-08-31T04:15:18;18.48;;;11.65;;
62572;SDS011;48626;51.678;5.806;2023-08-31T04:17:44;19.88;;;11.30;;
62572;SDS011;48626;51.678;5.806;2023-08-31T04:20:10;19.35;;;11.95;;
62572;SDS011;48626;51.678;5.806;2023-08-31T04:22:36;20.23;;;12.95;;
62572;SDS011;48626;51.678;5.806;2023-08-31T04:25:02;20.00;;;12.40;;
62572;SDS011;48626;51.678;5.806;2023-08-31T04:27:28;22.15;;;12.38;;
62572;SDS011;48626;51.678;5.806;2023-08-31T04:29:56;20.25;;;13.18;;
62572;SDS011;48626;51.678;5.806;2023-08-31T04:32:28;19.73;;;13.65;;
62572;SDS011;48626;51.678;5.806;2023-08-31T04:34:54;21.83;;;13.40;;
62572;SDS011;48626;51.678;5.806;2023-08-31T04:37:20;21.00;;;12.88;;
62572;SDS011;48626;51.678;5.806;2023-08-31T04:39:47;19.88;;;12.88;;
62572;SDS011;48626;51.678;5.806;2023-08-31T04:42:13;18.05;;;12.68;;
62572;SDS011;48626;51.678;5.806;2023-08-31T04:44:38;22.42;;;13.43;;
62572;SDS011;48626;51.678;5.806;2023-08-31T04:47:04;21.88;;;13.35;;
62572;SDS011;48626;51.678;5.806;2023-08-31T04:49:30;23.13;;;13.13;;
62572;SDS011;48626;51.678;5.806;2023-08-31T04:51:56;20.75;;;12.57;;
62572;SDS011;48626;51.678;5.806;2023-08-31T04:54:21;17.17;;;12.68;;
62572;SDS011;48626;51.678;5.806;2023-08-31T04:56:47;20.63;;;12.65;;
62572;SDS011;48626;51.678;5.806;2023-08-31T04:59:12;19.08;;;13.63;;
62572;SDS011;48626;51.678;5.806;2023-08-31T05:01:38;18.92;;;13.48;;
62572;SDS011;48626;51.678;5.806;2023-08-31T05:04:04;19.73;;;12.60;;
62572;SDS011;48626;51.678;5.806;2023-08-31T05:06:29;18.42;;;12.18;;
62572;SDS011;48626;51.678;5.806;2023-08-31T05:08:55;20.38;;;12.10;;
62572;SDS011;48626;51.678;5.806;2023-08-31T05:11:21;18.92;;;12.38;;
62572;SDS011;48626;51.678;5.806;2023-08-31T05:13:47;18.45;;;12.23;;
62572;SDS011;48626;51.678;5.806;2023-08-31T05:16:13;20.65;;;11.98;;
62572;SDS011;48626;51.678;5.806;2023-08-31T05:18:39;19.75;;;12.45;;
62572;SDS011;48626;51.678;5.806;2023-08-31T05:21:07;20.30;;;12.00;;
62572;SDS011;48626;51.678;5.806;2023-08-31T05:23:33;17.60;;;12.20;;
62572;SDS011;48626;51.678;5.806;2023-08-31T05:25:59;19.27;;;12.35;;
62572;SDS011;48626;51.678;5.806;2023-08-31T05:28:26;16.20;;;11.25;;
62572;SDS011;48626;51.678;5.806;2023-08-31T05:30:53;21.02;;;12.40;;
62572;SDS011;48626;51.678;5.806;2023-08-31T05:33:20;18.23;;;12.50;;
62572;SDS011;48626;51.678;5.806;2023-08-31T05:35:50;20.70;;;12.80;;
62572;SDS011;48626;51.678;5.806;2023-08-31T05:38:16;22.10;;;13.23;;
62572;SDS011;48626;51.678;5.806;2023-08-31T05:40:42;19.48;;;12.13;;
62572;SDS011;48626;51.678;5.806;2023-08-31T05:43:13;23.30;;;12.98;;
62572;SDS011;48626;51.678;5.806;2023-08-31T05:45:38;19.02;;;12.98;;
62572;SDS011;48626;51.678;5.806;2023-08-31T05:48:04;18.90;;;12.82;;
62572;SDS011;48626;51.678;5.806;2023-08-31T05:50:30;26.98;;;13.45;;
62572;SDS011;48626;51.678;5.806;2023-08-31T05:52:56;17.83;;;11.35;;
62572;SDS011;48626;51.678;5.806;2023-08-31T05:55:23;22.35;;;12.30;;
62572;SDS011;48626;51.678;5.806;2023-08-31T05:57:48;24.83;;;12.07;;
62572;SDS011;48626;51.678;5.806;2023-08-31T06:00:14;17.17;;;10.85;;
62572;SDS011;48626;51.678;5.806;2023-08-31T06:02:41;16.42;;;11.90;;
62572;SDS011;48626;51.678;5.806;2023-08-31T06:05:09;18.52;;;11.93;;
62572;SDS011;48626;51.678;5.806;2023-08-31T06:07:37;17.58;;;11.77;;
62572;SDS011;48626;51.678;5.806;2023-08-31T06:10:03;16.33;;;11.13;;
62572;SDS011;48626;51.678;5.806;2023-08-31T06:12:29;17.85;;;10.68;;
62572;SDS011;48626;51.678;5.806;2023-08-31T06:14:55;16.70;;;10.38;;
62572;SDS011;48626;51.678;5.806;2023-08-31T06:17:21;18.40;;;11.02;;
62572;SDS011;48626;51.678;5.806;2023-08-31T06:19:46;21.45;;;11.40;;
62572;SDS011;48626;51.678;5.806;2023-08-31T06:22:12;20.02;;;11.43;;
62572;SDS011;48626;51.678;5.806;2023-08-31T06:24:38;16.35;;;10.13;;
62572;SDS011;48626;51.678;5.806;2023-08-31T06:27:03;21.58;;;10.68;;
62572;SDS011;48626;51.678;5.806;2023-08-31T06:29:29;14.93;;;10.75;;
62572;SDS011;48626;51.678;5.806;2023-08-31T06:31:55;18.13;;;10.65;;
62572;SDS011;48626;51.678;5.806;2023-08-31T06:34:20;18.83;;;10.57;;
62572;SDS011;48626;51.678;5.806;2023-08-31T06:36:46;15.18;;;10.52;;
62572;SDS011;48626;51.678;5.806;2023-08-31T06:39:12;18.95;;;10.27;;
62572;SDS011;48626;51.678;5.806;2023-08-31T06:41:37;15.85;;;10.77;;
62572;SDS011;48626;51.678;5.806;2023-08-31T06:44:03;18.33;;;10.40;;
62572;SDS011;48626;51.678;5.806;2023-08-31T06:46:30;16.52;;;10.15;;
62572;SDS011;48626;51.678;5.806;2023-08-31T06:48:59;17.83;;;9.40;;
62572;SDS011;48626;51.678;5.806;2023-08-31T06:51:25;16.08;;;9.07;;
62572;SDS011;48626;51.678;5.806;2023-08-31T06:53:51;19.17;;;9.02;;
62572;SDS011;48626;51.678;5.806;2023-08-31T06:56:16;16.08;;;8.40;;
62572;SDS011;48626;51.678;5.806;2023-08-31T06:58:42;12.23;;;8.30;;
62572;SDS011;48626;51.678;5.806;2023-08-31T07:01:08;13.18;;;8.90;;
62572;SDS011;48626;51.678;5.806;2023-08-31T07:03:34;15.25;;;9.07;;
62572;SDS011;48626;51.678;5.806;2023-08-31T07:06:00;15.13;;;9.73;;
62572;SDS011;48626;51.678;5.806;2023-08-31T07:08:26;14.60;;;9.35;;
62572;SDS011;48626;51.678;5.806;2023-08-31T07:10:51;17.13;;;10.05;;
62572;SDS011;48626;51.678;5.806;2023-08-31T07:13:17;23.25;;;9.55;;
62572;SDS011;48626;51.678;5.806;2023-08-31T07:15:43;17.83;;;9.30;;
62572;SDS011;48626;51.678;5.806;2023-08-31T07:18:08;13.65;;;9.23;;
62572;SDS011;48626;51.678;5.806;2023-08-31T07:20:34;14.43;;;9.02;;
62572;SDS011;48626;51.678;5.806;2023-08-31T07:23:00;22.25;;;9.23;;
62572;SDS011;48626;51.678;5.806;2023-08-31T07:25:25;14.90;;;9.35;;
62572;SDS011;48626;51.678;5.806;2023-08-31T07:27:52;13.95;;;8.90;;
62572;SDS011;48626;51.678;5.806;2023-08-31T07:30:18;15.13;;;9.57;;
62572;SDS011;48626;51.678;5.806;2023-08-31T07:32:45;16.00;;;8.32;;
62572;SDS011;48626;51.678;5.806;2023-08-31T07:35:10;12.57;;;7.43;;
62572;SDS011;48626;51.678;5.806;2023-08-31T07:37:36;14.50;;;7.80;;
62572;SDS011;48626;51.678;5.806;2023-08-31T07:40:02;14.60;;;8.25;;
62572;SDS011;48626;51.678;5.806;2023-08-31T07:42:33;12.45;;;8.32;;
62572;SDS011;48626;51.678;5.806;2023-08-31T07:44:59;14.38;;;7.88;;
62572;SDS011;48626;51.678;5.806;2023-08-31T07:47:25;14.63;;;8.70;;
62572;SDS011;48626;51.678;5.806;2023-08-31T07:49:50;11.82;;;8.20;;
62572;SDS011;48626;51.678;5.806;2023-08-31T07:52:16;12.98;;;7.70;;
62572;SDS011;48626;51.678;5.806;2023-08-31T07:54:41;13.30;;;7.53;;
62572;SDS011;48626;51.678;5.806;2023-08-31T07:57:07;14.95;;;8.23;;
62572;SDS011;48626;51.678;5.806;2023-08-31T07:59:33;14.70;;;8.65;;
62572;SDS011;48626;51.678;5.806;2023-08-31T08:01:58;14.18;;;8.88;;
62572;SDS011;48626;51.678;5.806;2023-08-31T08:04:24;13.45;;;8.40;;
62572;SDS011;48626;51.678;5.806;2023-08-31T08:06:51;13.82;;;8.55;;
62572;SDS011;48626;51.678;5.806;2023-08-31T08:09:16;16.00;;;8.32;;
62572;SDS011;48626;51.678;5.806;2023-08-31T08:11:42;13.98;;;7.80;;
62572;SDS011;48626;51.678;5.806;2023-08-31T08:14:08;16.75;;;7.70;;
62572;SDS011;48626;51.678;5.806;2023-08-31T08:16:34;15.93;;;7.03;;
62572;SDS011;48626;51.678;5.806;2023-08-31T08:19:00;13.75;;;7.55;;
62572;SDS011;48626;51.678;5.806;2023-08-31T08:21:26;12.38;;;7.47;;
62572;SDS011;48626;51.678;5.806;2023-08-31T08:23:52;20.20;;;7.88;;
62572;SDS011;48626;51.678;5.806;2023-08-31T08:29:16;14.13;;;6.40;;
62572;SDS011;48626;51.678;5.806;2023-08-31T08:31:41;11.23;;;6.07;;
62572;SDS011;48626;51.678;5.806;2023-08-31T08:34:07;9.43;;;6.28;;
62572;SDS011;48626;51.678;5.806;2023-08-31T08:36:33;12.02;;;5.97;;
62572;SDS011;48626;51.678;5.806;2023-08-31T08:38:59;12.88;;;6.18;;
62572;SDS011;48626;51.678;5.806;2023-08-31T08:41:24;10.02;;;5.75;;
62572;SDS011;48626;51.678;5.806;2023-08-31T08:43:53;11.50;;;5.50;;
62572;SDS011;48626;51.678;5.806;2023-08-31T08:46:21;14.52;;;5.20;;
62572;SDS011;48626;51.678;5.806;2023-08-31T08:48:48;10.20;;;4.85;;
62572;SDS011;48626;51.678;5.806;2023-08-31T08:51:15;8.50;;;4.75;;
62572;SDS011;48626;51.678;5.806;2023-08-31T08:53:41;9.70;;;4.90;;
62572;SDS011;48626;51.678;5.806;2023-08-31T08:56:08;10.15;;;4.70;;
62572;SDS011;48626;51.678;5.806;2023-08-31T08:58:34;11.77;;;4.72;;
62572;SDS011;48626;51.678;5.806;2023-08-31T09:01:00;9.63;;;4.82;;
62572;SDS011;48626;51.678;5.806;2023-08-31T09:03:28;10.93;;;4.53;;
62572;SDS011;48626;51.678;5.806;2023-08-31T09:05:53;8.20;;;4.40;;
62572;SDS011;48626;51.678;5.806;2023-08-31T09:08:25;9.23;;;4.07;;
62572;SDS011;48626;51.678;5.806;2023-08-31T09:10:52;10.23;;;4.60;;
62572;SDS011;48626;51.678;5.806;2023-08-31T09:13:20;9.73;;;4.45;;
62572;SDS011;48626;51.678;5.806;2023-08-31T09:15:47;9.80;;;4.53;;
62572;SDS011;48626;51.678;5.806;2023-08-31T09:18:33;8.55;;;4.60;;
62572;SDS011;48626;51.678;5.806;2023-08-31T09:21:01;8.98;;;4.15;;
62572;SDS011;48626;51.678;5.806;2023-08-31T09:23:27;7.55;;;4.15;;
62572;SDS011;48626;51.678;5.806;2023-08-31T09:25:53;12.57;;;4.47;;
62572;SDS011;48626;51.678;5.806;2023-08-31T09:28:21;8.18;;;4.35;;
62572;SDS011;48626;51.678;5.806;2023-08-31T09:30:52;7.15;;;4.15;;
62572;SDS011;48626;51.678;5.806;2023-08-31T09:33:18;6.25;;;3.60;;
62572;SDS011;48626;51.678;5.806;2023-08-31T09:40:41;9.25;;;3.53;;
62572;SDS011;48626;51.678;5.806;2023-08-31T09:43:07;7.05;;;3.38;;
62572;SDS011;48626;51.678;5.806;2023-08-31T09:45:33;7.70;;;3.25;;
62572;SDS011;48626;51.678;5.806;2023-08-31T09:48:00;11.05;;;3.80;;
62572;SDS011;48626;51.678;5.806;2023-08-31T09:50:30;11.60;;;3.50;;
62572;SDS011;48626;51.678;5.806;2023-08-31T09:53:04;7.07;;;3.38;;
62572;SDS011;48626;51.678;5.806;2023-08-31T09:55:32;8.70;;;2.90;;
62572;SDS011;48626;51.678;5.806;2023-08-31T09:57:59;6.72;;;3.00;;
62572;SDS011;48626;51.678;5.806;2023-08-31T10:00:26;5.60;;;2.50;;
62572;SDS011;48626;51.678;5.806;2023-08-31T10:02:54;7.28;;;2.50;;
62572;SDS011;48626;51.678;5.806;2023-08-31T10:05:22;4.82;;;2.80;;
62572;SDS011;48626;51.678;5.806;2023-08-31T10:07:50;5.85;;;2.90;;
62572;SDS011;48626;51.678;5.806;2023-08-31T10:10:16;8.18;;;2.70;;
62572;SDS011;48626;51.678;5.806;2023-08-31T10:12:42;4.95;;;2.42;;
62572;SDS011;48626;51.678;5.806;2023-08-31T10:15:10;7.45;;;2.72;;
62572;SDS011;48626;51.678;5.806;2023-08-31T10:17:37;6.68;;;2.88;;
62572;SDS011;48626;51.678;5.806;2023-08-31T10:20:06;7.75;;;3.50;;
62572;SDS011;48626;51.678;5.806;2023-08-31T10:22:33;6.07;;;3.40;;
62572;SDS011;48626;51.678;5.806;2023-08-31T10:27:25;5.22;;;3.03;;
62572;SDS011;48626;51.678;5.806;2023-08-31T10:29:52;8.32;;;3.65;;
62572;SDS011;48626;51.678;5.806;2023-08-31T10:32:18;10.07;;;3.05;;
62572;SDS011;48626;51.678;5.806;2023-08-31T10:34:44;11.90;;;3.25;;
62572;SDS011;48626;51.678;5.806;2023-08-31T10:37:29;8.23;;;3.13;;
62572;SDS011;48626;51.678;5.806;2023-08-31T10:40:08;7.65;;;3.47;;
62572;SDS011;48626;51.678;5.806;2023-08-31T10:42:46;8.25;;;3.22;;
62572;SDS011;48626;51.678;5.806;2023-08-31T10:45:19;8.70;;;3.40;;
62572;SDS011;48626;51.678;5.806;2023-08-31T10:47:46;8.23;;;3.33;;
62572;SDS011;48626;51.678;5.806;2023-08-31T10:50:33;7.05;;;3.38;;
62572;SDS011;48626;51.678;5.806;2023-08-31T10:53:12;5.63;;;2.90;;
62572;SDS011;48626;51.678;5.806;2023-08-31T10:55:49;6.95;;;2.90;;
62572;SDS011;48626;51.678;5.806;2023-08-31T10:58:18;6.40;;;3.33;;
62572;SDS011;48626;51.678;5.806;2023-08-31T11:01:02;8.63;;;3.22;;
62572;SDS011;48626;51.678;5.806;2023-08-31T11:03:31;5.97;;;2.95;;
62572;SDS011;48626;51.678;5.806;2023-08-31T11:05:57;5.00;;;2.70;;
62572;SDS011;48626;51.678;5.806;2023-08-31T11:08:23;6.65;;;3.20;;
62572;SDS011;48626;51.678;5.806;2023-08-31T11:10:50;8.02;;;3.00;;
62572;SDS011;48626;51.678;5.806;2023-08-31T11:13:18;15.35;;;3.08;;
62572;SDS011;48626;51.678;5.806;2023-08-31T11:15:45;9.20;;;2.80;;
62572;SDS011;48626;51.678;5.806;2023-08-31T11:18:11;7.07;;;3.22;;
62572;SDS011;48626;51.678;5.806;2023-08-31T11:20:37;6.88;;;3.30;;
62572;SDS011;48626;51.678;5.806;2023-08-31T11:23:03;7.70;;;3.10;;
62572;SDS011;48626;51.678;5.806;2023-08-31T11:25:32;8.70;;;3.50;;
62572;SDS011;48626;51.678;5.806;2023-08-31T11:27:58;5.90;;;2.80;;
62572;SDS011;48626;51.678;5.806;2023-08-31T11:30:26;5.70;;;3.08;;
62572;SDS011;48626;51.678;5.806;2023-08-31T11:32:52;6.80;;;2.78;;
62572;SDS011;48626;51.678;5.806;2023-08-31T11:35:18;12.73;;;3.20;;
62572;SDS011;48626;51.678;5.806;2023-08-31T11:37:49;5.57;;;3.25;;
62572;SDS011;48626;51.678;5.806;2023-08-31T11:40:15;7.75;;;3.45;;
62572;SDS011;48626;51.678;5.806;2023-08-31T11:42:41;8.82;;;3.22;;
62572;SDS011;48626;51.678;5.806;2023-08-31T11:45:07;5.78;;;3.30;;
62572;SDS011;48626;51.678;5.806;2023-08-31T11:47:35;9.50;;;3.38;;
62572;SDS011;48626;51.678;5.806;2023-08-31T11:50:01;9.30;;;4.00;;
62572;SDS011;48626;51.678;5.806;2023-08-31T11:52:30;7.45;;;3.50;;
62572;SDS011;48626;51.678;5.806;2023-08-31T11:54:56;7.47;;;3.38;;
62572;SDS011;48626;51.678;5.806;2023-08-31T11:57:25;5.68;;;3.40;;
62572;SDS011;48626;51.678;5.806;2023-08-31T11:59:51;5.93;;;3.40;;
62572;SDS011;48626;51.678;5.806;2023-08-31T12:02:20;7.57;;;3.33;;
62572;SDS011;48626;51.678;5.806;2023-08-31T12:04:46;7.30;;;3.40;;
62572;SDS011;48626;51.678;5.806;2023-08-31T12:07:12;7.90;;;3.40;;
62572;SDS011;48626;51.678;5.806;2023-08-31T12:09:46;6.75;;;3.67;;
62572;SDS011;48626;51.678;5.806;2023-08-31T12:12:13;7.03;;;3.60;;
62572;SDS011;48626;51.678;5.806;2023-08-31T12:14:42;8.13;;;3.78;;
62572;SDS011;48626;51.678;5.806;2023-08-31T12:17:08;7.38;;;3.45;;
62572;SDS011;48626;51.678;5.806;2023-08-31T12:19:38;8.40;;;3.38;;
62572;SDS011;48626;51.678;5.806;2023-08-31T12:24:39;5.32;;;3.20;;
62572;SDS011;48626;51.678;5.806;2023-08-31T12:27:08;5.90;;;3.10;;
62572;SDS011;48626;51.678;5.806;2023-08-31T12:29:34;8.82;;;3.60;;
62572;SDS011;48626;51.678;5.806;2023-08-31T12:32:00;6.35;;;3.45;;
62572;SDS011;48626;51.678;5.806;2023-08-31T12:34:26;11.75;;;3.83;;
62572;SDS011;48626;51.678;5.806;2023-08-31T12:36:51;8.07;;;3.75;;
62572;SDS011;48626;51.678;5.806;2023-08-31T12:39:17;6.45;;;3.67;;
62572;SDS011;48626;51.678;5.806;2023-08-31T12:41:43;5.80;;;4.00;;
62572;SDS011;48626;51.678;5.806;2023-08-31T12:44:09;9.35;;;4.15;;
62572;SDS011;48626;51.678;5.806;2023-08-31T12:46:34;8.82;;;4.13;;
62572;SDS011;48626;51.678;5.806;2023-08-31T12:49:00;8.10;;;4.00;;
62572;SDS011;48626;51.678;5.806;2023-08-31T12:51:28;8.48;;;4.10;;
62572;SDS011;48626;51.678;5.806;2023-08-31T12:53:57;8.50;;;4.40;;
62572;SDS011;48626;51.678;5.806;2023-08-31T12:56:23;6.78;;;4.20;;
62572;SDS011;48626;51.678;5.806;2023-08-31T12:58:52;6.32;;;4.55;;
62572;SDS011;48626;51.678;5.806;2023-08-31T13:01:19;6.28;;;4.35;;
62572;SDS011;48626;51.678;5.806;2023-08-31T13:03:46;7.63;;;4.40;;
62572;SDS011;48626;51.678;5.806;2023-08-31T13:06:12;6.60;;;4.30;;
62572;SDS011;48626;51.678;5.806;2023-08-31T13:08:38;7.07;;;4.60;;
62572;SDS011;48626;51.678;5.806;2023-08-31T13:11:04;8.07;;;4.50;;
62572;SDS011;48626;51.678;5.806;2023-08-31T13:13:30;9.63;;;5.07;;
62572;SDS011;48626;51.678;5.806;2023-08-31T13:15:56;8.77;;;4.70;;
62572;SDS011;48626;51.678;5.806;2023-08-31T13:18:22;6.82;;;4.45;;
62572;SDS011;48626;51.678;5.806;2023-08-31T13:20:51;8.00;;;3.92;;
62572;SDS011;48626;51.678;5.806;2023-08-31T13:23:18;7.30;;;4.07;;
62572;SDS011;48626;51.678;5.806;2023-08-31T13:25:44;7.15;;;3.97;;
62572;SDS011;48626;51.678;5.806;2023-08-31T13:28:09;6.38;;;4.00;;
62572;SDS011;48626;51.678;5.806;2023-08-31T13:30:35;7.28;;;4.20;;
62572;SDS011;48626;51.678;5.806;2023-08-31T13:33:01;6.53;;;4.35;;
62572;SDS011;48626;51.678;5.806;2023-08-31T13:35:27;8.98;;;4.32;;
62572;SDS011;48626;51.678;5.806;2023-08-31T13:37:52;8.32;;;4.78;;
62572;SDS011;48626;51.678;5.806;2023-08-31T13:40:18;10.13;;;4.72;;
62572;SDS011;48626;51.678;5.806;2023-08-31T13:42:54;9.45;;;4.32;;
62572;SDS011;48626;51.678;5.806;2023-08-31T13:45:28;10.85;;;4.30;;
62572;SDS011;48626;51.678;5.806;2023-08-31T13:47:54;9.50;;;4.28;;
62572;SDS011;48626;51.678;5.806;2023-08-31T13:50:20;7.57;;;4.25;;
62572;SDS011;48626;51.678;5.806;2023-08-31T13:52:46;10.60;;;4.47;;
62572;SDS011;48626;51.678;5.806;2023-08-31T13:55:11;7.70;;;4.45;;
62572;SDS011;48626;51.678;5.806;2023-08-31T13:57:41;11.90;;;4.47;;
62572;SDS011;48626;51.678;5.806;2023-08-31T14:00:07;8.40;;;3.60;;
62572;SDS011;48626;51.678;5.806;2023-08-31T14:02:34;7.30;;;3.83;;
62572;SDS011;48626;51.678;5.806;2023-08-31T14:05:01;8.75;;;4.13;;
62572;SDS011;48626;51.678;5.806;2023-08-31T14:07:27;9.63;;;4.30;;
62572;SDS011;48626;51.678;5.806;2023-08-31T14:09:53;6.68;;;4.07;;
62572;SDS011;48626;51.678;5.806;2023-08-31T14:12:18;8.57;;;4.25;;
62572;SDS011;48626;51.678;5.806;2023-08-31T14:14:45;8.30;;;4.28;;
62572;SDS011;48626;51.678;5.806;2023-08-31T14:17:11;12.73;;;4.75;;
62572;SDS011;48626;51.678;5.806;2023-08-31T14:19:37;6.60;;;4.25;;
62572;SDS011;48626;51.678;5.806;2023-08-31T14:22:04;7.57;;;4.55;;
62572;SDS011;48626;51.678;5.806;2023-08-31T14:24:30;10.50;;;4.20;;
62572;SDS011;48626;51.678;5.806;2023-08-31T14:26:55;8.80;;;4.30;;
62572;SDS011;48626;51.678;5.806;2023-08-31T14:29:22;7.28;;;4.40;;
62572;SDS011;48626;51.678;5.806;2023-08-31T14:31:48;8.77;;;4.10;;
62572;SDS011;48626;51.678;5.806;2023-08-31T14:34:14;8.45;;;4.10;;
62572;SDS011;48626;51.678;5.806;2023-08-31T14:36:39;6.60;;;4.32;;
62572;SDS011;48626;51.678;5.806;2023-08-31T14:39:05;8.25;;;3.83;;
62572;SDS011;48626;51.678;5.806;2023-08-31T14:41:31;8.23;;;4.20;;
62572;SDS011;48626;51.678;5.806;2023-08-31T14:43:56;6.47;;;3.85;;
62572;SDS011;48626;51.678;5.806;2023-08-31T14:46:22;7.75;;;3.78;;
62572;SDS011;48626;51.678;5.806;2023-08-31T14:48:49;9.05;;;4.10;;
62572;SDS011;48626;51.678;5.806;2023-08-31T14:51:15;5.38;;;3.28;;
62572;SDS011;48626;51.678;5.806;2023-08-31T14:53:41;11.07;;;4.38;;
62572;SDS011;48626;51.678;5.806;2023-08-31T14:56:07;6.25;;;3.55;;
62572;SDS011;48626;51.678;5.806;2023-08-31T14:58:33;9.43;;;3.40;;
62572;SDS011;48626;51.678;5.806;2023-08-31T15:00:59;7.43;;;3.63;;